createdAt,value
2022-08-25T00:00:14.512Z,101702.88
2022-08-25T00:02:40.811Z,101681.63
2022-08-25T00:05:20.368Z,101658.53
2022-08-25T00:07:47.915Z,101649.19
2022-08-25T00:10:14.158Z,101624.31
2022-08-25T00:12:40.395Z,101622.94
2022-08-25T00:15:06.960Z,101606.19
2022-08-25T00:17:33.200Z,101595.84
2022-08-25T00:19:59.425Z,101588.94
2022-08-25T00:22:25.659Z,101581.25
2022-08-25T00:24:51.879Z,101585.19
2022-08-25T00:27:18.115Z,101622.06
2022-08-25T00:29:44.348Z,101627.53
2022-08-25T00:32:10.594Z,101620.22
2022-08-25T00:34:37.265Z,101635.22
2022-08-25T00:37:03.953Z,101659.25
2022-08-25T00:39:30.220Z,101664.50
2022-08-25T00:41:56.582Z,101654.31
2022-08-25T00:44:22.878Z,101616.66
2022-08-25T00:46:50.046Z,101606.53
2022-08-25T00:49:25.401Z,101586.94
2022-08-25T00:52:05.788Z,101565.28
2022-08-25T00:54:32.792Z,101564.47
2022-08-25T00:56:59.306Z,101563.75
2022-08-25T00:59:25.541Z,101564.53
2022-08-25T01:01:51.849Z,101556.88
2022-08-25T01:04:18.198Z,101563.53
2022-08-25T01:06:44.509Z,101572.22
2022-08-25T01:09:11.101Z,101573.59
2022-08-25T01:11:37.334Z,101567.06
2022-08-25T01:14:03.583Z,101594.63
2022-08-25T01:16:29.811Z,101615.28
2022-08-25T01:18:56.607Z,101621.34
2022-08-25T01:21:23.253Z,101612.63
2022-08-25T01:23:49.581Z,101616.09
2022-08-25T01:26:19.875Z,101618.03
2022-08-25T01:28:56.967Z,101668.28
2022-08-25T01:31:23.869Z,101670.63
2022-08-25T01:33:50.614Z,101684.97
2022-08-25T01:36:20.291Z,101707.00
2022-08-25T01:38:46.547Z,101737.13
2022-08-25T01:41:12.789Z,101758.25
2022-08-25T01:43:39.043Z,101769.63
2022-08-25T01:46:05.380Z,101771.22
2022-08-25T01:48:31.675Z,101764.63
2022-08-25T01:50:57.920Z,101759.84
2022-08-25T01:53:28.081Z,101744.50
2022-08-25T01:55:54.428Z,101714.03
2022-08-25T01:58:21.642Z,101693.63
2022-08-25T02:00:48.240Z,101695.78
2022-08-25T02:03:18.630Z,101701.06
2022-08-25T02:05:45.026Z,101713.00
2022-08-25T02:08:14.434Z,101711.19
2022-08-25T02:10:40.826Z,101705.06
2022-08-25T02:13:07.201Z,101696.59
2022-08-25T02:15:34.626Z,101705.09
2022-08-25T02:18:00.874Z,101693.19
2022-08-25T02:20:27.114Z,101691.06
2022-08-25T02:22:57.106Z,101680.25
2022-08-25T02:25:23.485Z,101680.25
2022-08-25T02:27:49.739Z,101673.91
2022-08-25T02:30:15.989Z,101659.88
2022-08-25T02:32:42.243Z,101648.75
2022-08-25T02:35:08.661Z,101640.81
2022-08-25T02:37:34.992Z,101635.53
2022-08-25T02:40:01.310Z,101635.53
2022-08-25T02:42:27.624Z,101622.84
2022-08-25T02:44:53.852Z,101614.34
2022-08-25T02:47:20.306Z,101610.34
2022-08-25T02:49:53.095Z,101606.88
2022-08-25T02:52:19.336Z,101598.41
2022-08-25T02:54:45.583Z,101594.72
2022-08-25T02:57:11.824Z,101601.84
2022-08-25T02:59:38.187Z,101596.31
2022-08-25T03:02:04.693Z,101595.78
2022-08-25T03:04:30.981Z,101591.53
2022-08-25T03:06:57.500Z,101586.81
2022-08-25T03:09:23.745Z,101585.72
2022-08-25T03:11:49.991Z,101588.91
2022-08-25T03:14:16.231Z,101578.06
2022-08-25T03:16:42.524Z,101582.81
2022-08-25T03:19:12.631Z,101573.25
2022-08-25T03:21:38.896Z,101576.91
2022-08-25T03:24:05.544Z,101556.06
2022-08-25T03:26:31.793Z,101556.59
2022-08-25T03:28:58.030Z,101551.59
2022-08-25T03:31:24.627Z,101543.88
2022-08-25T03:33:50.918Z,101546.53
2022-08-25T03:36:17.157Z,101545.97
2022-08-25T03:38:43.404Z,101534.59
2022-08-25T03:41:13.270Z,101538.81
2022-08-25T03:43:39.528Z,101529.59
2022-08-25T03:46:05.851Z,101521.88
2022-08-25T03:48:32.133Z,101515.00
2022-08-25T03:50:58.365Z,101517.44
2022-08-25T03:53:24.612Z,101515.84
2022-08-25T03:55:50.855Z,101511.31
2022-08-25T03:58:17.100Z,101504.94
2022-08-25T04:00:43.547Z,101501.47
2022-08-25T04:03:09.871Z,101496.66
2022-08-25T04:05:36.114Z,101495.13
2022-08-25T04:08:02.486Z,101492.72
2022-08-25T04:10:28.954Z,101495.00
2022-08-25T04:12:55.201Z,101485.47
2022-08-25T04:15:21.444Z,101483.94
2022-08-25T04:17:47.697Z,101493.41
2022-08-25T04:20:17.384Z,101490.78
2022-08-25T04:22:45.203Z,101489.94
2022-08-25T04:25:11.515Z,101485.72
2022-08-25T04:27:37.756Z,101485.94
2022-08-25T04:30:04.846Z,101481.69
2022-08-25T04:32:31.094Z,101487.72
2022-08-25T04:34:57.365Z,101487.94
2022-08-25T04:37:23.622Z,101486.88
2022-08-25T04:39:49.918Z,101488.69
2022-08-25T04:42:16.193Z,101491.09
2022-08-25T04:44:42.430Z,101492.97
2022-08-25T04:47:08.679Z,101492.72
2022-08-25T04:49:35.373Z,101486.06
2022-08-25T04:52:01.673Z,101486.28
2022-08-25T04:54:27.921Z,101485.66
2022-08-25T04:56:58.211Z,101486.19
2022-08-25T04:59:25.078Z,101486.72
2022-08-25T05:01:56.311Z,101491.75
2022-08-25T05:04:28.212Z,101491.47
2022-08-25T05:06:55.253Z,101492.03
2022-08-25T05:09:21.750Z,101497.78
2022-08-25T05:11:48.084Z,101497.19
2022-08-25T05:14:14.982Z,101497.78
2022-08-25T05:16:42.061Z,101509.94
2022-08-25T05:19:08.343Z,101503.56
2022-08-25T05:21:34.585Z,101510.66
2022-08-25T05:24:01.032Z,101511.00
2022-08-25T05:26:27.869Z,101509.66
2022-08-25T05:28:54.336Z,101512.81
2022-08-25T05:31:21.074Z,101509.09
2022-08-25T05:33:47.402Z,101507.25
2022-08-25T05:36:13.675Z,101508.84
2022-08-25T05:38:39.990Z,101501.34
2022-08-25T05:41:07.228Z,101491.97
2022-08-25T05:43:33.478Z,101481.13
2022-08-25T05:45:59.793Z,101482.13
2022-08-25T05:48:26.221Z,101477.03
2022-08-25T05:50:52.855Z,101480.75
2022-08-25T05:53:19.517Z,101480.94
2022-08-25T05:55:45.750Z,101481.03
2022-08-25T05:58:12.226Z,101476.97
2022-08-25T06:00:40.734Z,101472.69
2022-08-25T06:03:07.032Z,101466.53
2022-08-25T06:05:33.271Z,101461.66
2022-08-25T06:07:59.577Z,101468.81
2022-08-25T06:10:25.897Z,101459.31
2022-08-25T06:12:52.141Z,101456.66
2022-08-25T06:15:20.098Z,101462.72
2022-08-25T06:17:46.461Z,101469.53
2022-08-25T06:20:13.634Z,101472.47
2022-08-25T06:22:39.913Z,101471.31
2022-08-25T06:25:06.492Z,101468.25
2022-08-25T06:27:33.007Z,101470.09
2022-08-25T06:29:59.245Z,101462.09
2022-08-25T06:32:34.441Z,101471.53
2022-08-25T06:35:00.677Z,101470.97
2022-08-25T06:37:26.925Z,101467.97
2022-08-25T06:39:53.268Z,101469.84
2022-08-25T06:42:19.543Z,101467.28
2022-08-25T06:44:45.786Z,101472.81
2022-08-25T06:47:12.275Z,101466.59
2022-08-25T06:49:38.528Z,101462.28
2022-08-25T06:52:04.785Z,101471.50
2022-08-25T06:54:31.038Z,101464.19
2022-08-25T06:56:57.287Z,101456.94
2022-08-25T06:59:24.344Z,101466.25
2022-08-25T07:01:58.383Z,101471.41
2022-08-25T07:04:25.298Z,101477.50
2022-08-25T07:06:52.293Z,101469.81
2022-08-25T07:09:18.528Z,101477.97
2022-08-25T07:11:44.961Z,101470.47
2022-08-25T07:14:11.680Z,101465.44
2022-08-25T07:16:38.080Z,101453.34
2022-08-25T07:19:08.304Z,101456.22
2022-08-25T07:21:35.893Z,101453.69
2022-08-25T07:24:04.113Z,101459.88
2022-08-25T07:26:37.784Z,101453.56
2022-08-25T07:29:08.928Z,101460.56
2022-08-25T07:31:35.222Z,101464.19
2022-08-25T07:34:01.514Z,101468.41
2022-08-25T07:36:27.790Z,101469.31
2022-08-25T07:38:54.178Z,101466.56
2022-08-25T07:41:21.686Z,101468.72
2022-08-25T07:43:47.932Z,101472.88
2022-08-25T07:46:16.395Z,101483.56
2022-08-25T07:48:43.134Z,101490.66
2022-08-25T07:51:19.373Z,101490.56
2022-08-25T07:53:45.677Z,101493.47
2022-08-25T07:56:13.644Z,101509.06
2022-08-25T07:58:40.107Z,101513.00
2022-08-25T08:01:06.782Z,101503.91
2022-08-25T08:03:50.310Z,101493.50
2022-08-25T08:06:18.845Z,101517.56
2022-08-25T08:08:45.320Z,101543.53
2022-08-25T08:11:17.286Z,101559.69
2022-08-25T08:13:43.798Z,101557.91
2022-08-25T08:16:13.625Z,101573.72
2022-08-25T08:18:40.169Z,101568.72
2022-08-25T08:21:06.753Z,101556.13
2022-08-25T08:23:32.999Z,101516.56
2022-08-25T08:25:59.239Z,101506.81
2022-08-25T08:28:25.822Z,101535.53
2022-08-25T08:30:53.138Z,101513.28
2022-08-25T08:33:20.631Z,101472.00
2022-08-25T08:35:46.999Z,101435.00
2022-08-25T08:38:18.449Z,101361.28
2022-08-25T08:40:59.087Z,101346.34
2022-08-25T08:43:25.342Z,101420.25
2022-08-25T08:45:53.604Z,101441.72
2022-08-25T08:48:26.169Z,101502.59
2022-08-25T08:50:56.370Z,101458.66
2022-08-25T08:53:24.633Z,101527.44
2022-08-25T08:55:57.660Z,101587.22
2022-08-25T08:58:26.330Z,101551.38
2022-08-25T09:00:53.829Z,101526.00
2022-08-25T09:03:32.396Z,101455.16
2022-08-25T09:05:59.354Z,101417.06
2022-08-25T09:08:26.579Z,101498.75
2022-08-25T09:11:11.137Z,101416.97
2022-08-25T09:13:45.643Z,101359.78
2022-08-25T09:16:23.222Z,101307.00
2022-08-25T09:19:06.678Z,101236.75
2022-08-25T09:21:45.034Z,101390.44
2022-08-25T09:24:20.026Z,101411.53
2022-08-25T09:26:59.402Z,101447.13
2022-08-25T09:29:27.491Z,101496.28
2022-08-25T09:31:53.732Z,101577.25
2022-08-25T09:34:24.251Z,101628.66
2022-08-25T09:36:50.492Z,101679.41
2022-08-25T09:39:16.741Z,101673.59
2022-08-25T09:41:53.193Z,101593.72
2022-08-25T09:44:20.704Z,101597.06
2022-08-25T09:47:06.168Z,101562.97
2022-08-25T09:49:35.920Z,101362.53
2022-08-25T09:52:20.926Z,101310.56
2022-08-25T09:54:47.691Z,101136.03
2022-08-25T09:57:30.707Z,101165.94
2022-08-25T09:59:57.952Z,101357.47
2022-08-25T10:02:25.781Z,101387.41
2022-08-25T10:04:52.430Z,101436.84
2022-08-25T10:07:20.961Z,101425.34
2022-08-25T10:10:13.661Z,101266.84
2022-08-25T10:12:43.116Z,101074.81
2022-08-25T10:15:30.131Z,101312.22
2022-08-25T10:17:57.156Z,101175.38
2022-08-25T10:20:25.207Z,101093.47
2022-08-25T10:22:51.467Z,101101.22
2022-08-25T10:25:35.807Z,101022.03
2022-08-25T10:28:08.252Z,101024.94
2022-08-25T10:30:36.593Z,100964.88
2022-08-25T10:33:06.583Z,101084.22
2022-08-25T10:35:35.177Z,101166.47
2022-08-25T10:38:21.673Z,101314.88
2022-08-25T10:40:51.124Z,101430.50
2022-08-25T10:43:23.691Z,101298.66
2022-08-25T10:45:52.529Z,101259.94
2022-08-25T10:48:37.836Z,101282.59
2022-08-25T10:51:18.676Z,101350.28
2022-08-25T10:53:59.062Z,101484.56
2022-08-25T10:56:33.601Z,101479.19
2022-08-25T10:59:07.505Z,101439.53
2022-08-25T11:01:54.329Z,101402.91
2022-08-25T11:04:25.224Z,101162.38
2022-08-25T11:07:11.993Z,101236.16
2022-08-25T11:09:38.901Z,101108.84
2022-08-25T11:12:17.197Z,101158.69
2022-08-25T11:14:49.414Z,101029.38
2022-08-25T11:17:16.992Z,100819.09
2022-08-25T11:19:50.036Z,100903.91
2022-08-25T11:22:25.338Z,101119.16
2022-08-25T11:24:55.030Z,101241.63
2022-08-25T11:27:21.890Z,100990.63
2022-08-25T11:30:02.120Z,101208.44
2022-08-25T11:32:32.310Z,101055.72
2022-08-25T11:35:00.418Z,101080.59
2022-08-25T11:37:27.322Z,101137.66
2022-08-25T11:40:08.964Z,101069.63
2022-08-25T11:42:52.860Z,100728.28
2022-08-25T11:45:32.556Z,100970.13
2022-08-25T11:48:02.536Z,100926.72
2022-08-25T11:50:33.249Z,100789.69
2022-08-25T11:53:19.114Z,100768.41
2022-08-25T11:56:02.283Z,100930.41
2022-08-25T11:58:28.476Z,100939.94
2022-08-25T12:00:57.371Z,100859.66
2022-08-25T12:03:32.676Z,100895.38
2022-08-25T12:06:17.517Z,100918.69
2022-08-25T12:08:50.914Z,100621.06
2022-08-25T12:11:35.966Z,100588.34
2022-08-25T12:14:14.436Z,100925.19
2022-08-25T12:16:41.739Z,100968.59
2022-08-25T12:19:22.623Z,101064.25
2022-08-25T12:21:49.460Z,100887.97
2022-08-25T12:24:16.420Z,100999.63
2022-08-25T12:26:57.130Z,101063.00
2022-08-25T12:29:27.668Z,101015.31
2022-08-25T12:31:57.478Z,100985.19
2022-08-25T12:34:49.431Z,100951.53
2022-08-25T12:37:19.073Z,100862.22
2022-08-25T12:39:49.748Z,100901.28
2022-08-25T12:42:24.709Z,101032.13
2022-08-25T12:45:09.694Z,101156.16
2022-08-25T12:47:36.533Z,101250.03
2022-08-25T12:50:21.564Z,101298.66
2022-08-25T12:52:48.219Z,101268.63
2022-08-25T12:55:14.463Z,101288.41
2022-08-25T12:57:41.966Z,101020.44
2022-08-25T13:00:18.443Z,100892.28
2022-08-25T13:03:02.313Z,100841.84
2022-08-25T13:05:44.717Z,100769.97
2022-08-25T13:08:34.059Z,100590.41
2022-08-25T13:11:11.232Z,100576.72
2022-08-25T13:13:46.751Z,100806.63
2022-08-25T13:16:17.215Z,100724.91
2022-08-25T13:18:44.500Z,100664.41
2022-08-25T13:21:23.063Z,100580.78
2022-08-25T13:23:50.077Z,100707.13
2022-08-25T13:26:18.144Z,100685.66
2022-08-25T13:28:50.152Z,100654.50
2022-08-25T13:31:20.326Z,100680.66
2022-08-25T13:33:50.897Z,100748.38
2022-08-25T13:36:21.079Z,100667.09
2022-08-25T13:38:47.652Z,100839.56
2022-08-25T13:41:17.526Z,100643.41
2022-08-25T13:43:44.461Z,100938.75
2022-08-25T13:46:10.847Z,100965.78
2022-08-25T13:48:37.968Z,100991.75
2022-08-25T13:51:08.204Z,101017.69
2022-08-25T13:53:35.122Z,100837.38
2022-08-25T13:56:01.750Z,100813.22
2022-08-25T13:58:34.321Z,100659.69
2022-08-25T14:01:22.861Z,100584.09
2022-08-25T14:04:19.953Z,100657.97
2022-08-25T14:06:46.226Z,100713.66
2022-08-25T14:09:13.909Z,100617.97
2022-08-25T14:11:44.533Z,100686.94
2022-08-25T14:14:11.872Z,100676.88
2022-08-25T14:16:47.845Z,100526.63
2022-08-25T14:19:19.358Z,100650.88
2022-08-25T14:21:46.383Z,100729.56
2022-08-25T14:24:16.385Z,100612.81
2022-08-25T14:26:53.987Z,100488.72
2022-08-25T14:29:21.088Z,100532.38
2022-08-25T14:31:47.444Z,100478.00
2022-08-25T14:34:15.313Z,100550.78
2022-08-25T14:36:41.548Z,100613.38
2022-08-25T14:39:11.102Z,100504.81
2022-08-25T14:41:38.808Z,100332.38
2022-08-25T14:44:05.074Z,100452.59
2022-08-25T14:46:32.096Z,100391.31
2022-08-25T14:48:58.910Z,100322.72
2022-08-25T14:51:25.522Z,100657.66
2022-08-25T14:53:53.951Z,100651.72
2022-08-25T14:56:20.204Z,100672.22
2022-08-25T14:58:50.850Z,100676.47
2022-08-25T15:01:17.960Z,100649.78
2022-08-25T15:03:47.886Z,100800.81
2022-08-25T15:06:15.333Z,100719.25
2022-08-25T15:08:41.582Z,100813.28
2022-08-25T15:11:08.945Z,100969.59
2022-08-25T15:13:35.284Z,101051.41
2022-08-25T15:16:01.550Z,100977.81
2022-08-25T15:18:28.962Z,100950.63
2022-08-25T15:20:55.208Z,100749.31
2022-08-25T15:23:23.540Z,100776.75
2022-08-25T15:25:52.807Z,100911.00
2022-08-25T15:28:21.797Z,100978.75
2022-08-25T15:30:48.644Z,100976.47
2022-08-25T15:33:16.659Z,101007.78
2022-08-25T15:35:43.525Z,100974.72
2022-08-25T15:38:11.389Z,101030.69
2022-08-25T15:40:37.776Z,101104.94
2022-08-25T15:43:04.331Z,101050.63
2022-08-25T15:45:30.715Z,101091.59
2022-08-25T15:47:56.994Z,101184.84
2022-08-25T15:50:26.036Z,101238.28
2022-08-25T15:52:52.568Z,101208.56
2022-08-25T15:55:19.924Z,101238.66
2022-08-25T15:57:46.420Z,101281.69
2022-08-25T16:00:13.684Z,101243.00
2022-08-25T16:02:43.058Z,101189.03
2022-08-25T16:05:11.881Z,101212.56
2022-08-25T16:07:39.726Z,101153.69
2022-08-25T16:10:06.094Z,101105.50
2022-08-25T16:12:32.339Z,101135.88
2022-08-25T16:14:58.581Z,101178.56
2022-08-25T16:17:24.875Z,101146.69
2022-08-25T16:19:51.140Z,101173.34
2022-08-25T16:22:17.421Z,101204.88
2022-08-25T16:24:43.660Z,101237.34
2022-08-25T16:27:11.878Z,101242.22
2022-08-25T16:29:38.782Z,101239.50
2022-08-25T16:32:05.305Z,101253.06
2022-08-25T16:34:31.847Z,101222.19
2022-08-25T16:37:00.723Z,101220.78
2022-08-25T16:39:27.214Z,101224.09
2022-08-25T16:41:53.478Z,101230.09
2022-08-25T16:44:22.448Z,101250.56
2022-08-25T16:46:48.935Z,101223.88
2022-08-25T16:49:17.146Z,101212.84
2022-08-25T16:51:43.638Z,101245.66
2022-08-25T16:54:10.313Z,101271.97
2022-08-25T16:56:37.081Z,101247.16
2022-08-25T16:59:03.812Z,101231.63
2022-08-25T17:01:32.625Z,101227.69
2022-08-25T17:03:58.965Z,101251.03
2022-08-25T17:06:25.791Z,101270.31
2022-08-25T17:08:52.026Z,101291.28
2022-08-25T17:11:21.501Z,101271.34
2022-08-25T17:13:49.714Z,101272.25
2022-08-25T17:16:16.386Z,101239.25
2022-08-25T17:18:42.892Z,101233.44
2022-08-25T17:21:19.517Z,101228.97
2022-08-25T17:23:51.319Z,101252.06
2022-08-25T17:26:17.754Z,101260.94
2022-08-25T17:28:44.102Z,101243.84
2022-08-25T17:31:10.651Z,101239.47
2022-08-25T17:33:36.939Z,101259.38
2022-08-25T17:36:04.860Z,101259.03
2022-08-25T17:38:31.113Z,101254.19
2022-08-25T17:41:00.571Z,101254.66
2022-08-25T17:43:26.861Z,101283.59
2022-08-25T17:45:54.414Z,101258.47
2022-08-25T17:48:20.921Z,101279.09
2022-08-25T17:50:47.360Z,101284.94
2022-08-25T17:53:13.606Z,101278.31
2022-08-25T17:55:43.192Z,101291.22
2022-08-25T17:58:11.941Z,101289.81
2022-08-25T18:00:43.710Z,101265.47
2022-08-25T18:03:10.428Z,101271.63
2022-08-25T18:05:37.045Z,101274.94
2022-08-25T18:08:03.942Z,101279.63
2022-08-25T18:10:36.452Z,101298.78
2022-08-25T18:13:02.693Z,101288.44
2022-08-25T18:15:29.277Z,101288.47
2022-08-25T18:17:56.544Z,101302.69
2022-08-25T18:20:23.696Z,101293.16
2022-08-25T18:22:50.009Z,101299.59
2022-08-25T18:25:16.909Z,101293.00
2022-08-25T18:27:43.170Z,101285.59
2022-08-25T18:30:09.575Z,101282.94
2022-08-25T18:32:35.889Z,101280.28
2022-08-25T18:35:02.210Z,101285.28
2022-08-25T18:37:28.438Z,101292.78
2022-08-25T18:39:54.715Z,101294.38
2022-08-25T18:42:20.986Z,101281.50
2022-08-25T18:44:47.554Z,101304.94
2022-08-25T18:47:13.818Z,101298.81
2022-08-25T18:49:40.044Z,101297.72
2022-08-25T18:52:07.382Z,101307.41
2022-08-25T18:54:33.774Z,101305.03
2022-08-25T18:57:02.458Z,101291.09
2022-08-25T18:59:28.694Z,101287.47
2022-08-25T19:01:55.007Z,101290.59
2022-08-25T19:04:31.343Z,101281.84
2022-08-25T19:06:58.305Z,101275.09
2022-08-25T19:09:24.545Z,101265.03
2022-08-25T19:11:50.803Z,101275.69
2022-08-25T19:14:20.982Z,101281.94
2022-08-25T19:16:47.226Z,101277.50
2022-08-25T19:19:13.465Z,101288.84
2022-08-25T19:21:40.212Z,101282.88
2022-08-25T19:24:06.906Z,101296.66
2022-08-25T19:26:33.177Z,101272.97
2022-08-25T19:28:59.411Z,101279.97
2022-08-25T19:31:26.340Z,101258.44
2022-08-25T19:33:53.986Z,101254.41
2022-08-25T19:36:23.051Z,101267.09
2022-08-25T19:38:49.825Z,101269.44
2022-08-25T19:41:18.128Z,101286.03
2022-08-25T19:43:55.662Z,101273.13
2022-08-25T19:46:24.222Z,101267.94
2022-08-25T19:48:50.661Z,101268.53
2022-08-25T19:51:19.198Z,101260.19
2022-08-25T19:53:53.617Z,101263.44
2022-08-25T19:56:21.121Z,101255.66
2022-08-25T19:58:47.485Z,101254.31
2022-08-25T20:01:13.795Z,101254.22
2022-08-25T20:03:44.499Z,101252.53
2022-08-25T20:06:10.745Z,101254.88
2022-08-25T20:08:37.297Z,101235.50
2022-08-25T20:11:03.549Z,101234.16
2022-08-25T20:13:29.789Z,101249.38
2022-08-25T20:15:57.685Z,101255.72
2022-08-25T20:18:25.031Z,101257.34
2022-08-25T20:20:51.308Z,101244.25
2022-08-25T20:23:17.553Z,101233.13
2022-08-25T20:25:45.661Z,101242.78
2022-08-25T20:28:12.696Z,101235.03
2022-08-25T20:30:45.077Z,101240.03
2022-08-25T20:33:11.348Z,101247.97
2022-08-25T20:35:38.120Z,101247.19
2022-08-25T20:38:05.244Z,101251.59
2022-08-25T20:40:31.591Z,101246.41
2022-08-25T20:42:58.685Z,101244.13
2022-08-25T20:45:25.293Z,101246.94
2022-08-25T20:47:51.545Z,101247.13
2022-08-25T20:50:17.777Z,101248.19
2022-08-25T20:52:44.097Z,101228.03
2022-08-25T20:55:11.027Z,101227.06
2022-08-25T20:57:37.770Z,101232.69
2022-08-25T21:00:04.926Z,101229.78
2022-08-25T21:02:31.259Z,101220.56
2022-08-25T21:04:57.637Z,101224.13
2022-08-25T21:07:23.954Z,101221.53
2022-08-25T21:09:50.451Z,101226.59
2022-08-25T21:12:17.811Z,101216.03
2022-08-25T21:14:44.100Z,101204.47
2022-08-25T21:17:13.918Z,101208.66
2022-08-25T21:19:40.285Z,101210.25
2022-08-25T21:22:08.152Z,101211.16
2022-08-25T21:24:34.385Z,101196.22
2022-08-25T21:27:01.878Z,101205.66
2022-08-25T21:29:28.503Z,101198.94
2022-08-25T21:31:55.106Z,101176.97
2022-08-25T21:34:21.357Z,101185.28
2022-08-25T21:36:48.656Z,101183.13
2022-08-25T21:39:14.949Z,101182.34
2022-08-25T21:41:41.211Z,101165.34
2022-08-25T21:44:07.647Z,101169.59
2022-08-25T21:46:34.117Z,101175.81
2022-08-25T21:49:00.651Z,101180.34
2022-08-25T21:51:33.274Z,101180.50
2022-08-25T21:54:03.445Z,101172.06
2022-08-25T21:56:29.679Z,101171.50
2022-08-25T21:58:55.925Z,101166.41
2022-08-25T22:01:22.233Z,101167.97
2022-08-25T22:03:48.763Z,101168.94
2022-08-25T22:06:15.001Z,101169.41
2022-08-25T22:08:42.663Z,101159.75
2022-08-25T22:11:09.137Z,101166.03
2022-08-25T22:13:35.686Z,101159.94
2022-08-25T22:16:02.068Z,101173.56
2022-08-25T22:18:28.444Z,101166.19
2022-08-25T22:20:54.673Z,101151.78
2022-08-25T22:23:22.229Z,101155.00
2022-08-25T22:25:54.460Z,101148.03
2022-08-25T22:28:20.970Z,101138.53
2022-08-25T22:30:47.497Z,101129.19
2022-08-25T22:33:14.111Z,101144.19
2022-08-25T22:35:40.642Z,101142.84
2022-08-25T22:38:07.366Z,101134.59
2022-08-25T22:40:38.754Z,101138.81
2022-08-25T22:43:05.519Z,101129.84
2022-08-25T22:45:32.066Z,101128.41
2022-08-25T22:47:59.521Z,101134.19
2022-08-25T22:50:26.866Z,101131.84
2022-08-25T22:52:53.109Z,101125.75
2022-08-25T22:55:19.733Z,101116.34
2022-08-25T22:57:48.256Z,101132.63
2022-08-25T23:00:14.889Z,101136.00
2022-08-25T23:02:42.216Z,101144.34
2022-08-25T23:05:08.734Z,101138.25
2022-08-25T23:07:35.444Z,101131.19
2022-08-25T23:10:02.628Z,101124.47
2022-08-25T23:12:29.195Z,101112.81
2022-08-25T23:14:55.446Z,101104.97
2022-08-25T23:17:21.683Z,101115.63
2022-08-25T23:19:48.066Z,101110.31
2022-08-25T23:22:16.198Z,101102.09
2022-08-25T23:24:43.039Z,101099.31
2022-08-25T23:27:09.954Z,101090.06
2022-08-25T23:29:37.469Z,101083.94
2022-08-25T23:32:04.012Z,101076.38
2022-08-25T23:34:30.306Z,101064.50
2022-08-25T23:36:56.547Z,101067.44
2022-08-25T23:39:22.798Z,101061.72
2022-08-25T23:41:49.383Z,101064.47
2022-08-25T23:44:17.204Z,101055.09
2022-08-25T23:46:43.868Z,101054.63
2022-08-25T23:49:10.748Z,101046.34
2022-08-25T23:51:37.201Z,101052.31
2022-08-25T23:54:04.437Z,101056.19
2022-08-25T23:56:30.692Z,101066.41
2022-08-25T23:58:56.934Z,101074.56
